createdAt,value
2022-12-20T00:01:35.676Z,8.63
2022-12-20T00:04:04.235Z,10.47
2022-12-20T00:06:31.785Z,9.50
2022-12-20T00:09:01.552Z,10.33
2022-12-20T00:11:29.590Z,14.67
2022-12-20T00:13:56.856Z,8.40
2022-12-20T00:16:25.290Z,10.43
2022-12-20T00:18:53.579Z,13.60
2022-12-20T00:21:20.916Z,9.43
2022-12-20T00:23:48.268Z,7.23
2022-12-20T00:26:18.201Z,12.03
2022-12-20T00:28:46.237Z,12.33
2022-12-20T00:31:14.663Z,8.30
2022-12-20T00:37:32.968Z,8.77
2022-12-20T00:40:00.283Z,8.97
2022-12-20T00:42:28.982Z,9.07
2022-12-20T00:44:56.194Z,10.43
2022-12-20T00:47:24.130Z,9.60
2022-12-20T00:49:51.698Z,7.90
2022-12-20T00:52:19.271Z,7.63
2022-12-20T00:54:46.569Z,8.57
2022-12-20T00:57:13.865Z,8.97
2022-12-20T00:59:42.510Z,7.13
2022-12-20T01:05:01.856Z,7.93
2022-12-20T01:07:31.231Z,10.50
2022-12-20T01:09:58.467Z,10.27
2022-12-20T01:12:41.381Z,10.13
2022-12-20T01:15:30.648Z,9.30
2022-12-20T01:18:11.640Z,6.10
2022-12-20T01:20:38.875Z,7.17
2022-12-20T01:23:06.193Z,7.57
2022-12-20T01:25:33.490Z,5.80
2022-12-20T01:28:00.807Z,5.70
2022-12-20T01:30:28.055Z,5.57
2022-12-20T01:33:00.969Z,5.43
2022-12-20T01:35:29.743Z,4.40
2022-12-20T01:37:57.020Z,7.03
2022-12-20T01:40:24.330Z,7.67
2022-12-20T01:45:54.274Z,5.80
2022-12-20T01:48:23.036Z,11.33
2022-12-20T01:50:52.445Z,5.63
2022-12-20T01:53:21.701Z,8.97
2022-12-20T01:55:49.486Z,8.03
2022-12-20T01:58:18.842Z,10.03
2022-12-20T02:00:46.221Z,8.53
2022-12-20T02:03:14.555Z,7.80
2022-12-20T02:05:43.231Z,7.87
2022-12-20T02:08:13.435Z,11.37
2022-12-20T02:10:47.967Z,8.20
2022-12-20T02:13:22.581Z,7.20
2022-12-20T02:16:01.032Z,7.53
2022-12-20T02:18:35.868Z,8.97
2022-12-20T02:21:08.904Z,8.57
2022-12-20T02:23:46.309Z,11.03
2022-12-20T02:26:25.945Z,9.37
2022-12-20T02:29:03.613Z,8.50
2022-12-20T02:31:45.037Z,9.67
2022-12-20T02:34:12.570Z,8.63
2022-12-20T02:36:39.826Z,10.20
2022-12-20T02:39:07.307Z,10.13
2022-12-20T02:41:37.747Z,10.43
2022-12-20T02:47:53.142Z,8.70
2022-12-20T02:50:22.952Z,7.30
2022-12-20T02:52:51.523Z,7.83
2022-12-20T02:55:19.201Z,8.60
2022-12-20T02:57:56.138Z,8.20
2022-12-20T03:00:29.627Z,7.13
2022-12-20T03:03:04.926Z,6.73
2022-12-20T03:05:33.642Z,12.00
2022-12-20T03:08:00.924Z,7.57
2022-12-20T03:10:28.697Z,6.80
2022-12-20T03:13:18.167Z,7.13
2022-12-20T03:16:12.014Z,5.77
2022-12-20T03:18:40.744Z,9.30
2022-12-20T03:21:08.111Z,7.93
2022-12-20T03:23:35.349Z,6.93
2022-12-20T03:26:02.742Z,10.47
2022-12-20T03:28:38.074Z,8.30
2022-12-20T03:33:50.418Z,8.43
2022-12-20T03:36:17.914Z,9.93
2022-12-20T03:38:45.252Z,6.67
2022-12-20T03:41:13.321Z,6.53
2022-12-20T03:43:40.788Z,6.10
2022-12-20T03:46:15.241Z,8.77
2022-12-20T03:48:46.194Z,7.27
2022-12-20T03:51:16.373Z,7.67
2022-12-20T03:53:43.832Z,8.77
2022-12-20T03:56:12.387Z,8.70
2022-12-20T03:58:41.239Z,10.33
2022-12-20T04:01:19.282Z,5.20
2022-12-20T04:03:47.174Z,10.87
2022-12-20T04:06:15.988Z,8.23
2022-12-20T04:08:43.706Z,10.37
2022-12-20T04:11:12.919Z,9.70
2022-12-20T04:13:43.367Z,8.83
2022-12-20T04:16:10.770Z,11.93
2022-12-20T04:18:38.224Z,12.23
2022-12-20T04:21:11.499Z,8.70
2022-12-20T04:24:04.922Z,11.10
2022-12-20T04:26:56.535Z,8.07
2022-12-20T04:29:24.089Z,11.70
2022-12-20T04:31:52.349Z,12.60
2022-12-20T04:34:20.057Z,11.87
2022-12-20T04:36:49.279Z,14.13
2022-12-20T04:39:25.059Z,13.10
2022-12-20T04:42:13.989Z,16.23
2022-12-20T04:44:41.440Z,10.67
2022-12-20T04:47:10.620Z,14.67
2022-12-20T04:49:38.080Z,13.50
2022-12-20T04:52:05.809Z,12.53
2022-12-20T04:54:33.146Z,10.80
2022-12-20T04:57:13.941Z,14.60
2022-12-20T04:59:41.447Z,14.57
2022-12-20T05:02:14.589Z,13.13
2022-12-20T05:04:53.506Z,9.60
2022-12-20T05:07:22.960Z,12.13
2022-12-20T05:09:55.762Z,11.70
2022-12-20T05:12:24.490Z,14.40
2022-12-20T05:14:52.823Z,13.77
2022-12-20T05:17:22.606Z,16.10
2022-12-20T05:19:50.280Z,9.50
2022-12-20T05:22:17.812Z,13.17
2022-12-20T05:24:59.824Z,13.20
2022-12-20T05:27:32.704Z,11.80
2022-12-20T05:30:00.180Z,12.83
2022-12-20T05:32:28.778Z,14.13
2022-12-20T05:34:56.502Z,13.27
2022-12-20T05:37:46.745Z,16.67
2022-12-20T05:40:38.013Z,9.47
2022-12-20T05:43:07.479Z,11.63
2022-12-20T05:45:40.054Z,10.23
2022-12-20T05:48:13.736Z,9.37
2022-12-20T05:50:42.515Z,8.27
2022-12-20T05:53:44.891Z,10.87
2022-12-20T05:56:13.868Z,6.30
2022-12-20T05:58:42.511Z,10.73
2022-12-20T06:01:10.025Z,7.67
2022-12-20T06:03:38.885Z,8.33
2022-12-20T06:06:14.577Z,6.73
2022-12-20T06:08:43.707Z,6.30
2022-12-20T06:11:22.042Z,9.60
2022-12-20T06:14:12.033Z,6.70
2022-12-20T06:16:44.725Z,5.07
2022-12-20T06:19:17.695Z,6.83
2022-12-20T06:21:49.455Z,6.13
2022-12-20T06:24:19.828Z,6.17
2022-12-20T06:26:48.222Z,5.63
2022-12-20T06:29:16.835Z,5.90
2022-12-20T06:31:51.572Z,9.13
2022-12-20T06:34:19.036Z,6.80
2022-12-20T06:36:46.402Z,7.83
2022-12-20T06:39:19.258Z,8.00
2022-12-20T06:42:03.497Z,6.60
2022-12-20T06:44:32.225Z,5.80
2022-12-20T06:47:21.871Z,9.40
2022-12-20T06:50:07.216Z,6.03
2022-12-20T06:52:34.528Z,10.93
2022-12-20T06:55:01.825Z,5.63
2022-12-20T06:57:31.340Z,7.03
2022-12-20T07:00:00.731Z,7.23
2022-12-20T07:02:28.541Z,7.63
2022-12-20T07:04:56.058Z,6.20
2022-12-20T07:07:23.333Z,5.43
2022-12-20T07:09:50.685Z,6.80
2022-12-20T07:12:18.017Z,5.97
2022-12-20T07:17:22.597Z,8.43
2022-12-20T07:19:51.198Z,5.23
2022-12-20T07:22:18.697Z,4.90
2022-12-20T07:24:56.113Z,4.77
2022-12-20T07:30:53.879Z,6.23
2022-12-20T07:33:22.592Z,6.77
2022-12-20T07:35:54.498Z,5.23
2022-12-20T07:38:22.307Z,7.70
2022-12-20T07:40:49.742Z,5.07
2022-12-20T07:43:17.027Z,6.00
2022-12-20T07:45:44.363Z,6.20
2022-12-20T07:48:16.404Z,6.97
2022-12-20T07:50:48.738Z,6.47
2022-12-20T07:53:16.052Z,7.43
2022-12-20T07:55:43.428Z,11.40
2022-12-20T07:58:11.423Z,6.20
2022-12-20T08:00:39.301Z,8.17
2022-12-20T08:03:08.105Z,7.00
2022-12-20T08:05:35.878Z,10.23
2022-12-20T08:08:08.038Z,10.03
2022-12-20T08:10:35.521Z,7.80
2022-12-20T08:13:02.798Z,7.70
2022-12-20T08:15:30.325Z,7.63
2022-12-20T08:17:57.641Z,7.30
2022-12-20T08:20:24.983Z,6.70
2022-12-20T08:22:52.252Z,8.90
2022-12-20T08:25:21.144Z,5.97
2022-12-20T08:27:48.614Z,5.83
2022-12-20T08:30:16.166Z,8.53
2022-12-20T08:32:43.470Z,13.03
2022-12-20T08:35:11.172Z,8.20
2022-12-20T08:37:39.640Z,6.13
2022-12-20T08:40:07.688Z,6.33
2022-12-20T08:42:36.393Z,5.57
2022-12-20T08:45:23.219Z,6.53
2022-12-20T08:50:49.302Z,6.03
2022-12-20T08:53:16.653Z,8.47
2022-12-20T08:55:43.883Z,5.80
2022-12-20T08:58:12.513Z,6.07
2022-12-20T09:00:39.751Z,6.73
2022-12-20T09:03:07.235Z,6.63
2022-12-20T09:05:34.697Z,7.67
2022-12-20T09:08:02.011Z,8.27
2022-12-20T09:10:29.239Z,9.07
2022-12-20T09:12:56.605Z,10.80
2022-12-20T09:18:07.360Z,8.43
2022-12-20T09:20:34.661Z,14.07
2022-12-20T09:23:01.983Z,8.13
2022-12-20T09:25:29.417Z,10.73
2022-12-20T09:27:56.855Z,9.33
2022-12-20T09:30:30.335Z,11.97
2022-12-20T09:33:10.182Z,17.13
2022-12-20T09:35:48.437Z,9.97
2022-12-20T09:38:15.736Z,14.43
2022-12-20T09:40:46.167Z,10.47
2022-12-20T09:43:14.292Z,9.43
2022-12-20T09:45:41.612Z,17.13
2022-12-20T09:48:14.163Z,10.97
2022-12-20T09:50:47.588Z,12.57
2022-12-20T09:53:22.313Z,13.70
2022-12-20T09:55:53.230Z,13.07
2022-12-20T09:58:25.825Z,13.23
2022-12-20T10:00:54.561Z,17.30
2022-12-20T10:03:23.093Z,15.63
2022-12-20T10:05:54.125Z,12.90
2022-12-20T10:08:26.061Z,16.10
2022-12-20T10:11:00.637Z,16.03
2022-12-20T10:13:36.252Z,14.83
2022-12-20T10:16:08.449Z,18.17
2022-12-20T10:18:44.125Z,11.33
2022-12-20T10:21:18.025Z,13.27
2022-12-20T10:23:47.131Z,19.77
2022-12-20T10:26:14.711Z,17.13
2022-12-20T10:28:42.169Z,15.30
2022-12-20T10:31:13.425Z,15.50
2022-12-20T10:33:41.423Z,16.33
2022-12-20T10:36:27.406Z,17.33
2022-12-20T10:38:55.712Z,17.03
2022-12-20T10:41:24.027Z,18.60
2022-12-20T10:43:54.360Z,17.93
2022-12-20T10:50:25.249Z,18.70
2022-12-20T10:53:05.182Z,15.03
2022-12-20T10:55:36.493Z,16.03
2022-12-20T10:58:05.274Z,21.93
2022-12-20T11:00:33.298Z,17.67
2022-12-20T11:03:06.375Z,16.37
2022-12-20T11:05:33.815Z,15.40
2022-12-20T11:08:34.867Z,14.10
2022-12-20T11:11:10.201Z,19.10
2022-12-20T11:13:38.824Z,24.33
2022-12-20T11:16:06.372Z,19.10
2022-12-20T11:18:40.988Z,17.60
2022-12-20T11:21:25.940Z,21.20
2022-12-20T11:24:08.985Z,24.93
2022-12-20T11:26:53.214Z,20.80
2022-12-20T11:29:34.225Z,19.93
2022-12-20T11:32:06.153Z,20.90
2022-12-20T11:34:54.500Z,20.10
2022-12-20T11:37:22.702Z,19.10
2022-12-20T11:40:04.369Z,29.10
2022-12-20T11:42:35.693Z,23.30
2022-12-20T11:45:09.590Z,22.30
2022-12-20T11:47:55.147Z,31.50
2022-12-20T11:50:45.293Z,24.07
2022-12-20T11:53:17.387Z,24.37
2022-12-20T11:55:47.572Z,21.83
2022-12-20T11:58:19.416Z,19.73
2022-12-20T12:01:09.048Z,26.20
2022-12-20T12:04:01.832Z,24.60
2022-12-20T12:06:31.107Z,25.20
2022-12-20T12:09:04.758Z,25.97
2022-12-20T12:12:05.136Z,27.17
2022-12-20T12:14:28.410Z,27.97
2022-12-20T12:16:58.860Z,31.43
2022-12-20T12:19:30.298Z,29.10
2022-12-20T12:22:02.047Z,31.63
2022-12-20T12:24:30.580Z,32.13
2022-12-20T12:26:59.559Z,28.90
2022-12-20T12:29:36.130Z,31.47
2022-12-20T12:32:12.646Z,32.23
2022-12-20T12:35:00.096Z,34.50
2022-12-20T12:37:52.926Z,41.00
2022-12-20T12:40:50.525Z,32.50
2022-12-20T12:43:46.722Z,33.57
2022-12-20T12:46:15.786Z,35.50
2022-12-20T12:48:44.530Z,35.70
2022-12-20T12:51:23.743Z,39.10
2022-12-20T12:53:53.887Z,36.30
2022-12-20T12:56:47.393Z,38.20
2022-12-20T12:59:36.628Z,39.37
2022-12-20T13:05:39.809Z,44.77
2022-12-20T13:08:15.694Z,41.23
2022-12-20T13:11:07.002Z,43.77
2022-12-20T13:13:36.059Z,41.07
2022-12-20T13:16:14.360Z,37.53
2022-12-20T13:21:42.413Z,36.90
2022-12-20T13:24:39.951Z,36.77
2022-12-20T13:27:26.296Z,40.63
2022-12-20T13:33:49.976Z,47.80
2022-12-20T13:36:36.450Z,46.77
2022-12-20T13:39:05.574Z,42.57
2022-12-20T13:41:37.720Z,35.93
2022-12-20T13:44:20.148Z,41.93
2022-12-20T13:46:48.881Z,38.60
2022-12-20T13:49:24.879Z,44.87
2022-12-20T13:52:06.968Z,47.97
2022-12-20T13:54:34.239Z,39.73
2022-12-20T13:57:01.583Z,40.63
2022-12-20T13:59:50.153Z,51.20
2022-12-20T14:02:36.920Z,42.40
2022-12-20T14:05:15.692Z,45.57
2022-12-20T14:07:43.666Z,49.27
2022-12-20T14:10:18.104Z,48.63
2022-12-20T14:12:45.983Z,53.80
2022-12-20T14:15:22.105Z,51.47
2022-12-20T14:20:48.287Z,56.03
2022-12-20T14:23:16.861Z,53.07
2022-12-20T14:25:45.534Z,56.70
2022-12-20T14:28:36.980Z,57.07
2022-12-20T14:31:06.753Z,55.97
2022-12-20T14:33:49.212Z,53.53
2022-12-20T14:36:30.061Z,63.70
2022-12-20T14:38:57.530Z,54.70
2022-12-20T14:41:32.414Z,58.83
2022-12-20T14:44:01.833Z,58.07
2022-12-20T14:46:30.402Z,57.80
2022-12-20T14:49:17.260Z,56.30
2022-12-20T14:51:46.160Z,57.33
2022-12-20T14:54:56.210Z,62.10
2022-12-20T14:57:04.693Z,56.93
2022-12-20T14:59:31.879Z,59.10
2022-12-20T15:01:59.243Z,69.43
2022-12-20T15:08:17.399Z,63.00
2022-12-20T15:10:49.464Z,59.47
2022-12-20T15:13:17.897Z,63.17
2022-12-20T15:15:45.645Z,65.77
2022-12-20T15:18:13.583Z,59.10
2022-12-20T15:20:41.615Z,65.03
2022-12-20T15:23:17.815Z,60.07
2022-12-20T15:25:45.291Z,63.97
2022-12-20T15:28:14.114Z,60.33
2022-12-20T15:30:41.619Z,59.07
2022-12-20T15:33:27.917Z,61.57
2022-12-20T15:36:18.450Z,61.17
2022-12-20T15:39:12.175Z,59.53
2022-12-20T15:41:41.626Z,57.67
2022-12-20T15:44:13.593Z,58.43
2022-12-20T15:46:40.892Z,55.23
2022-12-20T15:49:10.651Z,58.43
2022-12-20T15:54:33.779Z,65.27
2022-12-20T15:57:02.089Z,54.53
2022-12-20T16:02:30.148Z,65.73
2022-12-20T16:05:12.269Z,61.80
2022-12-20T16:07:55.075Z,59.27
2022-12-20T16:10:23.908Z,59.17
2022-12-20T16:12:51.201Z,60.17
2022-12-20T16:15:20.832Z,63.13
2022-12-20T16:20:37.461Z,67.37
2022-12-20T16:23:30.829Z,62.70
2022-12-20T16:25:59.765Z,63.07
2022-12-20T16:28:27.191Z,63.63
2022-12-20T16:30:54.643Z,62.83
2022-12-20T16:36:40.076Z,58.23
2022-12-20T16:39:07.828Z,61.13
2022-12-20T16:41:36.754Z,69.60
2022-12-20T16:44:04.877Z,63.33
2022-12-20T16:46:33.389Z,66.73
2022-12-20T16:49:01.466Z,56.13
2022-12-20T16:51:29.799Z,67.27
2022-12-20T16:56:46.989Z,65.00
2022-12-20T16:59:20.636Z,66.07
2022-12-20T17:01:50.470Z,69.07
2022-12-20T17:04:19.064Z,65.63
2022-12-20T17:07:08.354Z,71.13
2022-12-20T17:12:44.826Z,69.37
2022-12-20T17:15:17.009Z,66.87
2022-12-20T17:17:44.277Z,65.40
2022-12-20T17:20:12.106Z,65.67
2022-12-20T17:22:39.427Z,63.63
2022-12-20T17:25:07.176Z,68.47
2022-12-20T17:27:38.946Z,69.30
2022-12-20T17:30:08.564Z,67.07
2022-12-20T17:32:35.821Z,67.10
2022-12-20T17:35:03.090Z,67.90
2022-12-20T17:37:46.475Z,72.00
2022-12-20T17:40:19.569Z,74.63
2022-12-20T17:42:46.888Z,63.13
2022-12-20T17:45:22.104Z,74.70
2022-12-20T17:47:49.607Z,84.13
2022-12-20T17:50:17.129Z,71.07
2022-12-20T17:52:44.832Z,80.22
2022-12-20T17:55:16.382Z,81.50
2022-12-20T17:57:43.623Z,77.77
2022-12-20T18:00:16.705Z,81.07
2022-12-20T18:02:45.560Z,80.60
2022-12-20T18:05:13.235Z,82.53
2022-12-20T18:07:40.579Z,89.27
2022-12-20T18:10:08.574Z,85.33
2022-12-20T18:12:37.665Z,47.63
2022-12-20T18:15:05.556Z,81.07
2022-12-20T18:17:32.811Z,86.03
2022-12-20T18:20:01.418Z,73.17
2022-12-20T18:22:28.834Z,98.23
2022-12-20T18:24:56.080Z,92.53
2022-12-20T18:27:30.184Z,88.27
2022-12-20T18:29:57.925Z,90.90
2022-12-20T18:32:25.385Z,83.20
2022-12-20T18:34:52.908Z,90.77
2022-12-20T18:37:21.512Z,55.87
2022-12-20T18:39:48.752Z,62.30
2022-12-20T18:42:16.033Z,81.97
2022-12-20T18:44:43.286Z,30.83
2022-12-20T18:47:10.583Z,79.17
2022-12-20T18:49:37.814Z,109.63
2022-12-20T18:52:05.152Z,96.87
2022-12-20T18:54:33.823Z,122.10
2022-12-20T18:57:38.421Z,139.83
2022-12-20T19:03:16.363Z,140.80
2022-12-20T19:05:43.801Z,105.77
2022-12-20T19:08:11.010Z,125.80
2022-12-20T19:10:39.588Z,118.07
2022-12-20T19:13:06.843Z,98.20
2022-12-20T19:18:23.603Z,99.60
2022-12-20T19:20:51.050Z,105.93
2022-12-20T19:23:18.295Z,106.60
2022-12-20T19:26:19.634Z,105.70
2022-12-20T19:32:23.795Z,92.87
2022-12-20T19:34:51.059Z,83.47
2022-12-20T19:37:18.618Z,78.30
2022-12-20T19:39:46.020Z,66.23
2022-12-20T19:42:28.647Z,48.53
2022-12-20T19:44:56.233Z,77.17
2022-12-20T19:47:25.480Z,57.23
2022-12-20T19:49:53.144Z,52.87
2022-12-20T19:52:28.617Z,67.70
2022-12-20T19:54:56.763Z,73.33
2022-12-20T19:57:23.972Z,65.93
2022-12-20T20:07:02.776Z,55.03
2022-12-20T20:09:30.064Z,53.23
2022-12-20T20:11:57.365Z,55.63
2022-12-20T20:14:24.720Z,59.77
2022-12-20T20:16:52.031Z,63.53
2022-12-20T20:19:19.633Z,77.13
2022-12-20T20:21:47.163Z,67.10
2022-12-20T20:24:15.995Z,68.23
2022-12-20T20:26:43.404Z,58.63
2022-12-20T20:29:10.652Z,47.90
2022-12-20T20:31:38.074Z,42.60
2022-12-20T20:34:05.393Z,27.60
2022-12-20T20:36:32.629Z,37.03
2022-12-20T20:39:00.216Z,38.40
2022-12-20T20:41:36.213Z,31.57
2022-12-20T20:44:03.585Z,30.77
2022-12-20T20:46:34.247Z,28.53
2022-12-20T20:49:01.681Z,26.27
2022-12-20T20:51:29.475Z,20.80
2022-12-20T20:53:57.244Z,20.70
2022-12-20T20:56:24.569Z,26.70
2022-12-20T20:58:57.721Z,27.07
2022-12-20T21:01:28.528Z,25.20
2022-12-20T21:03:57.155Z,24.70
2022-12-20T21:06:41.693Z,24.80
2022-12-20T21:09:10.398Z,23.83
2022-12-20T21:11:37.773Z,19.67
2022-12-20T21:14:06.688Z,22.10
2022-12-20T21:16:33.945Z,22.63
2022-12-20T21:19:01.268Z,20.37
2022-12-20T21:21:28.583Z,16.80
2022-12-20T21:23:59.078Z,20.67
2022-12-20T21:26:26.412Z,16.90
2022-12-20T21:28:57.293Z,15.03
2022-12-20T21:31:25.947Z,17.90
2022-12-20T21:33:53.223Z,17.07
2022-12-20T21:36:20.547Z,19.10
2022-12-20T21:38:48.363Z,15.63
2022-12-20T21:41:15.713Z,12.53
2022-12-20T21:43:43.039Z,13.77
2022-12-20T21:46:10.518Z,11.87
2022-12-20T21:48:39.543Z,13.67
2022-12-20T21:51:07.976Z,11.77
2022-12-20T21:53:35.369Z,19.23
2022-12-20T21:56:02.610Z,17.47
2022-12-20T21:58:30.917Z,11.40
2022-12-20T22:00:58.766Z,10.27
2022-12-20T22:03:26.764Z,16.13
2022-12-20T22:05:55.885Z,12.77
2022-12-20T22:08:23.878Z,9.00
2022-12-20T22:10:58.184Z,11.63
2022-12-20T22:13:25.612Z,13.77
2022-12-20T22:15:52.991Z,15.33
2022-12-20T22:18:20.333Z,15.77
2022-12-20T22:20:47.801Z,11.97
2022-12-20T22:23:16.378Z,16.87
2022-12-20T22:25:43.616Z,12.53
2022-12-20T22:28:12.226Z,14.47
2022-12-20T22:30:41.050Z,14.87
2022-12-20T22:33:08.370Z,13.43
2022-12-20T22:35:36.029Z,14.87
2022-12-20T22:38:03.267Z,9.17
2022-12-20T22:40:32.294Z,12.90
2022-12-20T22:42:59.520Z,15.70
2022-12-20T22:45:26.991Z,12.77
2022-12-20T22:47:54.213Z,10.83
2022-12-20T22:50:21.511Z,22.30
2022-12-20T22:52:48.721Z,11.07
2022-12-20T22:55:16.075Z,15.23
2022-12-20T22:57:44.647Z,14.93
2022-12-20T23:00:12.531Z,12.27
2022-12-20T23:02:40.498Z,13.93
2022-12-20T23:05:08.144Z,12.37
2022-12-20T23:07:35.577Z,15.10
2022-12-20T23:10:02.794Z,11.07
2022-12-20T23:12:30.211Z,13.83
2022-12-20T23:15:03.952Z,13.30
2022-12-20T23:17:32.792Z,11.73
2022-12-20T23:20:00.352Z,14.57
2022-12-20T23:22:27.660Z,16.57
2022-12-20T23:24:54.878Z,16.63
2022-12-20T23:27:22.095Z,10.90
2022-12-20T23:29:49.326Z,10.57
2022-12-20T23:32:17.983Z,9.40
2022-12-20T23:34:45.339Z,14.77
2022-12-20T23:37:12.538Z,18.10
2022-12-20T23:39:42.863Z,15.80
2022-12-20T23:42:10.226Z,17.20
2022-12-20T23:44:37.425Z,11.63
2022-12-20T23:47:05.111Z,11.70
2022-12-20T23:49:34.029Z,12.50
2022-12-20T23:52:01.477Z,11.60
2022-12-20T23:54:28.689Z,17.73
2022-12-20T23:56:56.110Z,17.37
2022-12-20T23:59:23.332Z,13.63
